createdAt,value
2018-07-21T00:00:14.195Z,21.83
2018-07-21T00:02:42.854Z,23.33
2018-07-21T00:05:11.171Z,17.23
2018-07-21T00:07:39.795Z,20.67
2018-07-21T00:10:08.504Z,19.07
2018-07-21T00:12:36.789Z,19.70
2018-07-21T00:15:05.529Z,18.93
2018-07-21T00:17:34.264Z,21.30
2018-07-21T00:20:03.009Z,16.50
2018-07-21T00:22:31.709Z,19.83
2018-07-21T00:25:00.455Z,19.10
2018-07-21T00:27:29.106Z,22.87
2018-07-21T00:29:57.798Z,19.37
2018-07-21T00:32:26.537Z,20.27
2018-07-21T00:34:55.315Z,18.83
2018-07-21T00:37:23.995Z,16.40
2018-07-21T00:39:52.650Z,18.27
2018-07-21T00:42:21.430Z,17.40
2018-07-21T00:44:50.124Z,19.77
2018-07-21T00:47:18.813Z,16.37
2018-07-21T00:49:47.477Z,16.47
2018-07-21T00:52:16.227Z,16.83
2018-07-21T00:54:44.931Z,19.20
2018-07-21T00:57:13.715Z,17.67
2018-07-21T00:59:42.396Z,17.83
2018-07-21T01:02:11.143Z,18.23
2018-07-21T01:04:39.763Z,18.40
2018-07-21T01:07:08.460Z,17.93
2018-07-21T01:09:37.178Z,18.23
2018-07-21T01:12:05.917Z,21.00
2018-07-21T01:14:34.635Z,17.83
2018-07-21T01:17:03.358Z,18.03
2018-07-21T01:19:32.082Z,17.33
2018-07-21T01:22:00.753Z,16.33
2018-07-21T01:24:29.489Z,18.63
2018-07-21T01:26:58.125Z,19.00
2018-07-21T01:29:26.834Z,15.23
2018-07-21T01:31:55.566Z,14.50
2018-07-21T01:34:24.266Z,14.67
2018-07-21T01:36:52.992Z,14.50
2018-07-21T01:39:21.638Z,14.63
2018-07-21T01:41:50.332Z,14.20
2018-07-21T01:44:19.002Z,15.80
2018-07-21T01:46:47.687Z,13.90
2018-07-21T01:49:16.387Z,15.63
2018-07-21T01:51:45.054Z,12.70
2018-07-21T01:54:13.704Z,13.50
2018-07-21T01:56:42.372Z,16.77
2018-07-21T01:59:11.083Z,13.50
2018-07-21T02:01:39.460Z,16.30
2018-07-21T02:04:07.838Z,12.77
2018-07-21T02:06:36.572Z,16.80
2018-07-21T02:09:07.767Z,12.17
2018-07-21T02:11:36.429Z,14.20
2018-07-21T02:14:05.193Z,14.10
2018-07-21T02:16:33.833Z,13.00
2018-07-21T02:19:02.498Z,12.47
2018-07-21T02:21:31.206Z,12.37
2018-07-21T02:23:59.529Z,11.83
2018-07-21T02:26:28.264Z,11.40
2018-07-21T02:28:56.929Z,11.93
2018-07-21T02:31:25.587Z,14.13
2018-07-21T02:33:54.251Z,12.40
2018-07-21T02:36:22.888Z,11.10
2018-07-21T02:38:51.585Z,10.30
2018-07-21T02:41:20.238Z,12.60
2018-07-21T02:43:48.916Z,18.53
2018-07-21T02:46:17.598Z,11.07
2018-07-21T02:48:46.237Z,11.43
2018-07-21T02:51:14.912Z,14.03
2018-07-21T02:53:43.627Z,13.33
2018-07-21T02:56:12.288Z,16.27
2018-07-21T02:58:41.056Z,15.70
2018-07-21T03:01:09.719Z,15.63
2018-07-21T03:03:38.413Z,16.23
2018-07-21T03:06:07.059Z,17.93
2018-07-21T03:08:35.770Z,12.53
2018-07-21T03:11:04.490Z,12.07
2018-07-21T03:13:33.146Z,13.90
2018-07-21T03:16:01.890Z,12.13
2018-07-21T03:18:30.677Z,13.20
2018-07-21T03:20:59.344Z,11.83
2018-07-21T03:23:27.650Z,12.20
2018-07-21T03:25:56.292Z,11.00
2018-07-21T03:28:24.939Z,11.00
2018-07-21T03:30:53.625Z,10.33
2018-07-21T03:33:22.327Z,11.60
2018-07-21T03:36:15.434Z,11.87
2018-07-21T03:38:44.094Z,10.20
2018-07-21T03:41:12.812Z,9.43
2018-07-21T03:43:41.555Z,10.03
2018-07-21T03:46:10.208Z,9.60
2018-07-21T03:48:38.901Z,9.53
2018-07-21T03:51:07.604Z,9.33
2018-07-21T03:53:36.246Z,10.97
2018-07-21T03:56:05.898Z,10.80
2018-07-21T03:58:34.610Z,10.40
2018-07-21T04:01:03.311Z,10.60
2018-07-21T04:03:31.986Z,9.17
2018-07-21T04:06:00.738Z,10.33
2018-07-21T04:08:29.378Z,9.47
2018-07-21T04:10:58.095Z,9.40
2018-07-21T04:13:26.722Z,10.33
2018-07-21T04:15:55.425Z,9.67
2018-07-21T04:18:24.116Z,8.50
2018-07-21T04:20:52.888Z,8.67
2018-07-21T04:23:21.555Z,8.40
2018-07-21T04:25:50.244Z,8.63
2018-07-21T04:28:18.889Z,8.47
2018-07-21T04:30:47.548Z,8.00
2018-07-21T04:33:16.247Z,15.40
2018-07-21T04:35:44.923Z,18.90
2018-07-21T04:38:13.529Z,12.17
2018-07-21T04:40:42.274Z,9.90
2018-07-21T04:43:10.982Z,9.83
2018-07-21T04:45:39.608Z,10.20
2018-07-21T04:48:08.318Z,9.60
2018-07-21T04:50:37.029Z,12.20
2018-07-21T04:53:05.919Z,11.60
2018-07-21T04:55:34.538Z,14.90
2018-07-21T04:58:03.234Z,12.23
2018-07-21T05:00:42.072Z,13.10
2018-07-21T05:06:09.465Z,12.63
2018-07-21T05:08:38.128Z,13.60
2018-07-21T05:11:06.823Z,12.50
2018-07-21T05:13:35.510Z,13.50
2018-07-21T05:16:04.094Z,13.73
2018-07-21T05:18:32.769Z,14.40
2018-07-21T05:21:01.468Z,11.87
2018-07-21T05:23:30.140Z,12.10
2018-07-21T05:25:58.796Z,11.80
2018-07-21T05:28:27.527Z,11.03
2018-07-21T05:30:56.296Z,11.97
2018-07-21T05:33:24.997Z,14.20
2018-07-21T05:35:53.600Z,12.43
2018-07-21T05:38:28.431Z,14.60
2018-07-21T05:40:57.121Z,11.90
2018-07-21T05:43:25.878Z,11.30
2018-07-21T05:45:54.631Z,10.63
2018-07-21T05:48:23.454Z,15.83
2018-07-21T05:51:08.095Z,11.37
2018-07-21T05:53:36.726Z,10.40
2018-07-21T05:56:06.450Z,10.43
2018-07-21T05:58:35.156Z,9.90
2018-07-21T06:01:03.883Z,13.67
2018-07-21T06:03:32.604Z,9.60
2018-07-21T06:06:01.343Z,11.70
2018-07-21T06:08:30.123Z,12.00
2018-07-21T06:10:58.810Z,9.80
2018-07-21T06:13:27.493Z,10.13
2018-07-21T06:15:56.240Z,10.27
2018-07-21T06:18:24.940Z,10.77
2018-07-21T06:21:03.248Z,10.13
2018-07-21T06:23:31.930Z,10.10
2018-07-21T06:26:00.651Z,10.30
2018-07-21T06:28:29.314Z,9.67
2018-07-21T06:30:57.927Z,11.03
2018-07-21T06:33:26.677Z,10.43
2018-07-21T06:35:55.333Z,8.20
2018-07-21T06:38:24.005Z,8.93
2018-07-21T06:40:52.668Z,8.27
2018-07-21T06:43:23.579Z,8.57
2018-07-21T06:45:52.209Z,8.00
2018-07-21T06:48:20.966Z,8.73
2018-07-21T06:50:49.691Z,8.00
2018-07-21T06:53:18.386Z,8.47
2018-07-21T06:55:47.055Z,8.13
2018-07-21T06:58:15.725Z,8.60
2018-07-21T07:00:44.509Z,8.17
2018-07-21T07:03:13.129Z,8.60
2018-07-21T07:05:41.497Z,7.30
2018-07-21T07:08:10.169Z,9.20
2018-07-21T07:13:32.147Z,7.60
2018-07-21T07:16:00.874Z,8.67
2018-07-21T07:18:29.610Z,7.97
2018-07-21T07:20:58.322Z,8.27
2018-07-21T07:23:27.003Z,8.20
2018-07-21T07:25:55.729Z,8.00
2018-07-21T07:28:24.433Z,11.30
2018-07-21T07:30:53.128Z,8.50
2018-07-21T07:33:21.863Z,7.50
2018-07-21T07:35:50.526Z,7.80
2018-07-21T07:38:19.147Z,9.13
2018-07-21T07:40:47.807Z,8.33
2018-07-21T07:43:16.504Z,7.50
2018-07-21T07:45:45.155Z,8.00
2018-07-21T07:48:13.407Z,7.97
2018-07-21T07:50:42.101Z,7.43
2018-07-21T07:53:10.846Z,7.83
2018-07-21T07:55:39.504Z,7.47
2018-07-21T07:58:08.204Z,7.57
2018-07-21T08:00:36.909Z,7.30
2018-07-21T08:03:05.565Z,7.57
2018-07-21T08:05:34.157Z,7.67
2018-07-21T08:08:02.702Z,8.17
2018-07-21T08:10:31.347Z,8.13
2018-07-21T08:13:00.048Z,7.50
2018-07-21T08:15:28.675Z,7.93
2018-07-21T08:17:57.299Z,7.73
2018-07-21T08:20:25.978Z,7.40
2018-07-21T08:22:54.627Z,8.67
2018-07-21T08:25:23.305Z,7.37
2018-07-21T08:27:51.625Z,8.50
2018-07-21T08:30:20.306Z,8.33
2018-07-21T08:32:48.957Z,8.50
2018-07-21T08:35:17.773Z,7.90
2018-07-21T08:37:46.342Z,7.90
2018-07-21T08:40:14.927Z,8.07
2018-07-21T08:42:43.587Z,8.63
2018-07-21T08:45:12.190Z,8.40
2018-07-21T08:47:40.915Z,8.23
2018-07-21T08:50:09.541Z,8.40
2018-07-21T08:52:38.237Z,8.40
2018-07-21T08:55:06.953Z,8.27
2018-07-21T08:57:35.682Z,8.50
2018-07-21T09:00:04.503Z,8.80
2018-07-21T09:02:33.128Z,9.40
2018-07-21T09:05:01.778Z,12.00
2018-07-21T09:07:30.406Z,9.67
2018-07-21T09:09:59.107Z,9.70
2018-07-21T09:12:27.870Z,11.23
2018-07-21T09:14:56.598Z,9.77
2018-07-21T09:17:25.227Z,10.27
2018-07-21T09:19:53.902Z,11.03
2018-07-21T09:22:22.593Z,13.57
2018-07-21T09:24:51.374Z,11.60
2018-07-21T09:27:20.090Z,10.90
2018-07-21T09:29:48.823Z,12.10
2018-07-21T09:32:17.504Z,12.07
2018-07-21T09:34:46.198Z,11.13
2018-07-21T09:37:14.903Z,11.40
2018-07-21T09:39:43.612Z,10.73
2018-07-21T09:42:12.401Z,11.40
2018-07-21T09:44:40.968Z,10.77
2018-07-21T09:47:09.626Z,13.13
2018-07-21T09:49:38.370Z,11.83
2018-07-21T09:52:07.023Z,11.63
2018-07-21T09:54:35.738Z,11.70
2018-07-21T09:57:04.362Z,10.87
2018-07-21T09:59:33.066Z,10.13
2018-07-21T10:02:01.773Z,8.23
2018-07-21T10:04:30.420Z,9.67
2018-07-21T10:06:58.763Z,11.23
2018-07-21T10:09:27.450Z,8.20
2018-07-21T10:11:56.052Z,8.10
2018-07-21T10:14:24.796Z,8.70
2018-07-21T10:16:53.526Z,9.53
2018-07-21T10:19:22.166Z,8.60
2018-07-21T10:21:50.950Z,8.40
2018-07-21T10:24:24.831Z,8.50
2018-07-21T10:26:58.752Z,8.30
2018-07-21T10:29:27.502Z,8.00
2018-07-21T10:31:56.165Z,8.30
2018-07-21T10:34:24.819Z,8.87
2018-07-21T10:36:53.501Z,8.00
2018-07-21T10:39:22.192Z,9.53
2018-07-21T10:41:50.858Z,8.53
2018-07-21T10:44:19.577Z,9.97
2018-07-21T10:46:48.298Z,9.10
2018-07-21T10:49:17.060Z,9.20
2018-07-21T10:51:56.264Z,9.07
2018-07-21T10:54:24.946Z,10.07
2018-07-21T10:59:47.555Z,9.90
2018-07-21T11:02:28.117Z,10.43
2018-07-21T11:04:56.851Z,10.03
2018-07-21T11:10:26.330Z,9.97
2018-07-21T11:13:07.323Z,9.23
2018-07-21T11:15:55.565Z,8.53
2018-07-21T11:18:24.295Z,9.03
2018-07-21T11:20:52.971Z,8.20
2018-07-21T11:23:21.655Z,8.57
2018-07-21T11:25:50.366Z,10.30
2018-07-21T11:28:19.155Z,13.80
2018-07-21T11:30:47.888Z,11.27
2018-07-21T11:33:16.527Z,10.50
2018-07-21T11:35:45.293Z,9.80
2018-07-21T11:38:13.865Z,8.70
2018-07-21T11:40:42.645Z,8.73
2018-07-21T11:43:11.389Z,9.23
2018-07-21T11:45:42.269Z,9.70
2018-07-21T11:48:11.007Z,10.87
2018-07-21T11:50:39.725Z,9.47
2018-07-21T11:53:08.495Z,9.10
2018-07-21T11:55:37.186Z,8.63
2018-07-21T11:58:18.360Z,9.00
2018-07-21T12:00:46.986Z,9.03
2018-07-21T12:03:15.635Z,8.37
2018-07-21T12:05:44.333Z,9.90
2018-07-21T12:08:14.095Z,9.33
2018-07-21T12:10:42.817Z,9.00
2018-07-21T12:13:11.652Z,10.70
2018-07-21T12:15:40.222Z,8.00
2018-07-21T12:18:08.895Z,8.40
2018-07-21T12:20:37.644Z,7.97
2018-07-21T12:23:06.293Z,6.80
2018-07-21T12:25:34.941Z,7.90
2018-07-21T12:28:03.632Z,7.67
2018-07-21T12:30:32.376Z,6.90
2018-07-21T12:33:01.098Z,6.70
2018-07-21T12:35:29.752Z,6.83
2018-07-21T12:37:58.400Z,7.07
2018-07-21T12:40:27.086Z,6.80
2018-07-21T12:42:55.786Z,6.70
2018-07-21T12:45:24.536Z,6.90
2018-07-21T12:47:53.220Z,6.87
2018-07-21T12:50:21.970Z,6.47
2018-07-21T12:52:50.667Z,6.10
2018-07-21T12:55:19.322Z,6.43
2018-07-21T12:57:48.037Z,6.10
2018-07-21T13:00:16.705Z,6.33
2018-07-21T13:02:45.331Z,7.53
2018-07-21T13:05:14.054Z,5.80
2018-07-21T13:07:42.733Z,5.97
2018-07-21T13:10:11.677Z,5.60
2018-07-21T13:12:40.479Z,6.30
2018-07-21T13:15:09.369Z,6.97
2018-07-21T13:17:38.257Z,6.23
2018-07-21T13:20:07.430Z,6.83
2018-07-21T13:22:36.038Z,6.97
2018-07-21T13:25:04.688Z,6.57
2018-07-21T13:27:34.402Z,7.60
2018-07-21T13:30:03.198Z,7.93
2018-07-21T13:32:36.180Z,7.73
2018-07-21T13:35:05.029Z,6.93
2018-07-21T13:37:33.781Z,6.17
2018-07-21T13:40:03.686Z,6.90
2018-07-21T13:42:45.754Z,7.00
2018-07-21T13:45:20.461Z,7.20
2018-07-21T13:47:49.177Z,7.93
2018-07-21T13:50:17.906Z,6.50
2018-07-21T13:52:46.495Z,5.63
2018-07-21T13:55:17.263Z,7.10
2018-07-21T13:57:46.128Z,7.40
2018-07-21T14:00:14.826Z,7.07
2018-07-21T14:02:43.506Z,6.77
2018-07-21T14:05:12.242Z,7.70
2018-07-21T14:07:41.018Z,14.50
2018-07-21T14:10:09.787Z,9.20
2018-07-21T14:12:38.362Z,7.53
2018-07-21T14:15:07.024Z,7.90
2018-07-21T14:17:35.382Z,8.30
2018-07-21T14:20:04.502Z,8.63
2018-07-21T14:22:33.083Z,10.10
2018-07-21T14:25:01.807Z,8.53
2018-07-21T14:27:30.502Z,8.87
2018-07-21T14:29:59.284Z,10.27
2018-07-21T14:32:27.895Z,10.93
2018-07-21T14:34:56.564Z,9.07
2018-07-21T14:37:25.322Z,9.53
2018-07-21T14:39:53.998Z,9.60
2018-07-21T14:42:22.240Z,11.50
2018-07-21T14:44:53.022Z,10.57
2018-07-21T14:47:21.745Z,10.67
2018-07-21T14:49:54.931Z,10.60
2018-07-21T14:52:23.613Z,10.63
2018-07-21T14:54:52.492Z,10.40
2018-07-21T14:57:21.077Z,11.03
2018-07-21T14:59:49.760Z,9.03
2018-07-21T15:02:24.081Z,9.87
2018-07-21T15:04:52.828Z,10.13
2018-07-21T15:07:21.546Z,10.10
2018-07-21T15:09:50.181Z,11.00
2018-07-21T15:12:18.991Z,10.57
2018-07-21T15:14:47.624Z,11.17
2018-07-21T15:17:16.376Z,9.80
2018-07-21T15:19:45.104Z,10.90
2018-07-21T15:22:13.792Z,11.07
2018-07-21T15:24:42.449Z,12.60
2018-07-21T15:27:11.082Z,14.57
2018-07-21T15:29:39.825Z,20.57
2018-07-21T15:32:08.681Z,15.30
2018-07-21T15:34:37.029Z,16.10
2018-07-21T15:37:05.988Z,17.73
2018-07-21T15:39:34.681Z,17.30
2018-07-21T15:42:03.439Z,16.87
2018-07-21T15:44:32.117Z,26.83
2018-07-21T15:47:00.826Z,18.47
2018-07-21T15:49:29.577Z,29.90
2018-07-21T15:51:58.216Z,19.90
2018-07-21T15:54:26.900Z,27.83
2018-07-21T15:56:55.782Z,24.30
2018-07-21T15:59:24.483Z,20.03
2018-07-21T16:01:53.146Z,20.80
2018-07-21T16:04:21.898Z,17.30
2018-07-21T16:06:50.678Z,17.13
2018-07-21T16:09:19.348Z,16.97
2018-07-21T16:11:48.062Z,20.80
2018-07-21T16:14:16.765Z,16.20
2018-07-21T16:16:45.472Z,18.43
2018-07-21T16:19:14.148Z,16.53
2018-07-21T16:21:42.887Z,15.43
2018-07-21T16:24:11.575Z,17.50
2018-07-21T16:26:40.223Z,19.00
2018-07-21T16:29:09.243Z,15.53
2018-07-21T16:31:37.953Z,13.70
2018-07-21T16:34:07.720Z,13.43
2018-07-21T16:36:36.438Z,10.50
2018-07-21T16:39:07.208Z,9.63
2018-07-21T16:41:35.969Z,11.50
2018-07-21T16:44:04.731Z,12.50
2018-07-21T16:46:33.445Z,9.43
2018-07-21T16:49:26.509Z,10.00
2018-07-21T16:52:01.889Z,9.97
2018-07-21T16:54:30.673Z,10.90
2018-07-21T16:57:22.819Z,10.60
2018-07-21T17:00:03.677Z,8.43
2018-07-21T17:02:43.398Z,7.70
2018-07-21T17:05:21.848Z,8.90
2018-07-21T17:10:53.284Z,9.80
2018-07-21T17:13:22.010Z,10.03
2018-07-21T17:16:03.194Z,10.60
2018-07-21T17:18:31.854Z,9.60
2018-07-21T17:21:00.589Z,8.40
2018-07-21T17:23:34.697Z,10.60
2018-07-21T17:26:03.385Z,7.30
2018-07-21T17:28:32.103Z,8.33
2018-07-21T17:31:00.758Z,8.30
2018-07-21T17:33:29.458Z,7.00
2018-07-21T17:36:01.411Z,7.50
2018-07-21T17:38:30.128Z,8.10
2018-07-21T17:41:03.558Z,7.93
2018-07-21T17:43:46.028Z,6.10
2018-07-21T17:46:14.817Z,7.80
2018-07-21T17:48:43.499Z,6.20
2018-07-21T17:51:12.205Z,5.80
2018-07-21T17:53:40.881Z,5.50
2018-07-21T17:56:09.579Z,6.33
2018-07-21T17:58:38.279Z,5.93
2018-07-21T18:01:07.035Z,7.20
2018-07-21T18:03:35.752Z,5.80
2018-07-21T18:06:04.422Z,5.60
2018-07-21T18:08:33.150Z,4.93
2018-07-21T18:11:01.948Z,5.70
2018-07-21T18:13:36.492Z,5.43
2018-07-21T18:16:05.190Z,7.30
2018-07-21T18:18:33.918Z,5.10
2018-07-21T18:21:02.640Z,5.37
2018-07-21T18:23:31.393Z,5.93
2018-07-21T18:26:00.060Z,5.70
2018-07-21T18:28:34.455Z,7.93
2018-07-21T18:31:03.170Z,8.30
2018-07-21T18:33:31.952Z,6.30
2018-07-21T18:36:00.698Z,6.43
2018-07-21T18:41:40.854Z,6.50
2018-07-21T18:44:09.627Z,7.77
2018-07-21T18:46:38.568Z,8.00
2018-07-21T18:49:07.211Z,7.33
2018-07-21T18:51:35.948Z,8.97
2018-07-21T19:08:43.324Z,8.53
2018-07-21T19:11:12.009Z,7.27
2018-07-21T19:13:40.898Z,9.27
2018-07-21T19:16:14.924Z,7.70
2018-07-21T19:18:43.888Z,9.10
2018-07-21T19:21:24.490Z,8.73
2018-07-21T19:23:53.231Z,8.13
2018-07-21T19:26:27.181Z,8.27
2018-07-21T19:28:56.203Z,8.17
2018-07-21T19:31:25.073Z,8.80
2018-07-21T19:33:54.079Z,8.20
2018-07-21T19:36:22.907Z,7.93
2018-07-21T19:38:51.903Z,8.17
2018-07-21T19:41:26.191Z,9.37
2018-07-21T19:43:54.974Z,9.57
2018-07-21T19:46:23.630Z,7.80
2018-07-21T19:48:52.343Z,8.50
2018-07-21T19:51:21.187Z,8.50
2018-07-21T19:53:49.797Z,9.07
2018-07-21T19:56:18.551Z,8.53
2018-07-21T19:58:47.331Z,9.97
2018-07-21T20:01:16.100Z,9.57
2018-07-21T20:03:44.805Z,9.67
2018-07-21T20:06:13.505Z,9.80
2018-07-21T20:08:42.247Z,8.67
2018-07-21T20:11:11.021Z,12.80
2018-07-21T20:13:39.777Z,9.90
2018-07-21T20:16:08.041Z,11.20
2018-07-21T20:18:36.883Z,10.57
2018-07-21T20:21:05.497Z,10.27
2018-07-21T20:23:34.331Z,11.17
2018-07-21T20:26:03.105Z,12.03
2018-07-21T20:28:31.947Z,11.47
2018-07-21T20:31:00.678Z,12.33
2018-07-21T20:33:29.403Z,11.17
2018-07-21T20:35:58.112Z,10.90
2018-07-21T20:38:26.833Z,13.27
2018-07-21T20:40:55.559Z,13.67
2018-07-21T20:43:24.364Z,12.00
2018-07-21T20:45:53.096Z,11.90
2018-07-21T20:48:21.824Z,12.90
2018-07-21T20:50:50.531Z,11.80
2018-07-21T20:53:19.198Z,13.13
2018-07-21T20:55:47.867Z,13.10
2018-07-21T20:58:16.582Z,13.83
2018-07-21T21:00:45.266Z,14.87
2018-07-21T21:03:14.022Z,16.13
2018-07-21T21:05:42.716Z,13.90
2018-07-21T21:08:11.436Z,14.97
2018-07-21T21:10:40.181Z,15.50
2018-07-21T21:13:08.888Z,16.43
2018-07-21T21:15:37.605Z,16.67
2018-07-21T21:18:06.310Z,14.90
2018-07-21T21:20:35.077Z,15.97
2018-07-21T21:23:03.778Z,16.87
2018-07-21T21:25:32.099Z,16.13
2018-07-21T21:28:00.799Z,18.23
2018-07-21T21:30:29.468Z,17.10
2018-07-21T21:32:58.170Z,17.90
2018-07-21T21:35:26.828Z,20.23
2018-07-21T21:37:55.559Z,21.77
2018-07-21T21:40:24.263Z,16.77
2018-07-21T21:42:52.611Z,16.60
2018-07-21T21:45:21.331Z,17.43
2018-07-21T21:47:49.989Z,17.63
2018-07-21T21:50:18.625Z,17.40
2018-07-21T21:52:47.402Z,18.40
2018-07-21T21:55:16.088Z,16.57
2018-07-21T21:57:44.788Z,15.73
2018-07-21T22:00:13.674Z,19.27
2018-07-21T22:02:42.418Z,17.93
2018-07-21T22:05:11.791Z,18.20
2018-07-21T22:07:40.460Z,18.53
2018-07-21T22:10:09.129Z,19.30
2018-07-21T22:12:38.047Z,16.30
2018-07-21T22:15:12.765Z,17.53
2018-07-21T22:17:41.425Z,16.17
2018-07-21T22:20:10.134Z,19.40
2018-07-21T22:22:38.841Z,18.23
2018-07-21T22:25:07.610Z,17.63
2018-07-21T22:27:36.238Z,21.47
2018-07-21T22:30:05.208Z,19.13
2018-07-21T22:32:33.888Z,20.30
2018-07-21T22:35:02.602Z,20.67
2018-07-21T22:37:31.227Z,20.73
2018-07-21T22:39:59.888Z,24.77
2018-07-21T22:42:28.524Z,23.50
2018-07-21T22:44:57.177Z,23.37
2018-07-21T22:47:25.873Z,28.63
2018-07-21T22:49:54.603Z,26.93
2018-07-21T22:52:24.161Z,28.77
2018-07-21T22:57:47.179Z,28.37
2018-07-21T23:00:15.874Z,29.90
2018-07-21T23:02:44.613Z,36.10
2018-07-21T23:05:13.337Z,31.80
2018-07-21T23:07:42.085Z,25.07
2018-07-21T23:10:10.763Z,29.00
2018-07-21T23:12:39.367Z,27.60
2018-07-21T23:15:09.159Z,28.80
2018-07-21T23:17:37.906Z,25.97
2018-07-21T23:20:07.858Z,23.63
2018-07-21T23:22:37.128Z,26.10
2018-07-21T23:25:06.113Z,21.87
2018-07-21T23:27:34.990Z,24.70
2018-07-21T23:30:03.714Z,33.57
2018-07-21T23:32:31.994Z,33.60
2018-07-21T23:35:00.735Z,26.97
2018-07-21T23:37:29.325Z,27.33
2018-07-21T23:39:57.939Z,23.33
2018-07-21T23:42:26.634Z,19.50
2018-07-21T23:44:55.274Z,20.03
2018-07-21T23:47:23.966Z,21.90
2018-07-21T23:49:52.621Z,20.43
2018-07-21T23:52:21.343Z,24.27
2018-07-21T23:54:50.025Z,25.60
2018-07-21T23:57:18.721Z,24.80
2018-07-21T23:59:47.423Z,27.90
